createdAt,value
2023-05-24T00:16:45.507Z,15.12
2023-05-24T00:17:45.626Z,15.07
2023-05-24T00:18:45.735Z,15.11
2023-05-24T00:19:46.213Z,15.17
2023-05-24T00:20:48.400Z,15.07
2023-05-24T00:21:47.920Z,15.11
2023-05-24T00:22:48.834Z,15.11
2023-05-24T00:23:49.308Z,15.15
2023-05-24T00:24:50.380Z,15.08
2023-05-24T00:25:51.262Z,15.04
2023-05-24T00:26:52.061Z,15.07
2023-05-24T00:27:52.960Z,15.11
2023-05-24T00:28:53.523Z,15.02
2023-05-24T00:29:54.227Z,15.18
2023-05-24T00:30:54.918Z,15.05
2023-05-24T00:31:55.879Z,15.04
2023-05-24T00:32:56.169Z,15.18
2023-05-24T00:33:56.995Z,15.11
2023-05-24T00:34:57.706Z,15.08
2023-05-24T00:35:58.268Z,15.05
2023-05-24T00:36:59.358Z,15.07
2023-05-24T00:37:59.631Z,15.08
2023-05-24T00:39:00.250Z,15.07
2023-05-24T00:40:00.951Z,15.1
2023-05-24T00:41:01.919Z,15.1
2023-05-24T00:42:02.937Z,15.05
2023-05-24T00:43:03.647Z,15.02
2023-05-24T00:44:03.932Z,15.11
2023-05-24T00:45:04.407Z,15.07
2023-05-24T00:46:04.788Z,15
2023-05-24T00:47:05.739Z,15.07
2023-05-24T00:48:05.578Z,15.07
2023-05-24T00:49:05.894Z,15.04
2023-05-24T00:50:06.908Z,15.14
2023-05-24T00:51:07.236Z,15.07
2023-05-24T00:52:07.918Z,15.12
2023-05-24T00:53:08.618Z,15.11
2023-05-24T00:54:09.304Z,15.07
2023-05-24T00:55:09.796Z,15.12
2023-05-24T00:56:10.588Z,15.05
2023-05-24T00:57:11.333Z,14.97
2023-05-24T00:58:12.077Z,15.07
2023-05-24T00:59:12.374Z,15.04
2023-05-24T01:00:13.188Z,14.94
2023-05-24T01:01:14.062Z,14.99
2023-05-24T01:02:15.291Z,14.9
2023-05-24T01:03:15.422Z,14.87
2023-05-24T01:04:15.552Z,14.86
2023-05-24T01:05:15.893Z,14.73
2023-05-24T01:06:16.613Z,14.68
2023-05-24T01:07:17.676Z,14.66
2023-05-24T01:08:18.771Z,14.62
2023-05-24T01:09:19.020Z,14.58
2023-05-24T01:10:19.530Z,14.66
2023-05-24T01:11:19.588Z,14.62
2023-05-24T01:12:20.269Z,14.59
2023-05-24T01:13:20.530Z,14.55
2023-05-24T01:14:21.426Z,14.52
2023-05-24T01:15:21.919Z,14.52
2023-05-24T01:16:22.794Z,14.56
2023-05-24T01:17:23.998Z,14.56
2023-05-24T01:18:24.367Z,14.61
2023-05-24T01:19:24.725Z,14.68
2023-05-24T01:20:25.658Z,14.73
2023-05-24T01:21:25.221Z,14.59
2023-05-24T01:22:25.907Z,14.55
2023-05-24T01:23:26.398Z,14.68
2023-05-24T01:24:26.889Z,14.7
2023-05-24T01:25:26.949Z,14.61
2023-05-24T01:26:27.417Z,14.68
2023-05-24T01:27:28.538Z,14.66
2023-05-24T01:28:28.843Z,14.7
2023-05-24T01:29:29.260Z,14.81
2023-05-24T01:30:29.937Z,14.74
2023-05-24T01:31:31.188Z,14.7
2023-05-24T01:32:31.701Z,14.7
2023-05-24T01:33:31.710Z,14.77
2023-05-24T01:34:32.187Z,14.77
2023-05-24T01:35:32.138Z,14.73
2023-05-24T01:36:33.054Z,14.73
2023-05-24T01:37:33.419Z,14.73
2023-05-24T01:38:34.108Z,14.78
2023-05-24T01:39:34.897Z,14.78
2023-05-24T01:40:35.366Z,14.79
2023-05-24T01:41:36.873Z,14.77
2023-05-24T01:43:37.276Z,14.81
2023-05-24T01:44:37.552Z,14.77
2023-05-24T01:48:40.117Z,14.81
2023-05-24T01:49:40.432Z,14.85
2023-05-24T02:11:41.225Z,14.25
2023-05-24T02:12:41.072Z,14.18
2023-05-24T02:13:41.578Z,14.07
2023-05-24T02:14:42.438Z,14.01
2023-05-24T02:15:42.964Z,13.98
2023-05-24T02:16:44.022Z,13.87
2023-05-24T02:17:44.759Z,13.85
2023-05-24T02:18:45.554Z,13.86
2023-05-24T02:19:46.035Z,13.78
2023-05-24T02:20:47.609Z,13.75
2023-05-24T02:21:47.104Z,13.76
2023-05-24T02:22:47.799Z,13.7
2023-05-24T02:23:48.399Z,13.67
2023-05-24T02:24:49.042Z,13.65
2023-05-24T02:25:49.775Z,13.61
2023-05-24T02:26:50.725Z,13.64
2023-05-24T02:27:50.674Z,13.58
2023-05-24T02:28:51.385Z,13.55
2023-05-24T02:29:51.699Z,13.57
2023-05-24T02:30:52.549Z,13.57
2023-05-24T02:31:53.116Z,13.52
2023-05-24T02:32:53.613Z,13.5
2023-05-24T02:33:54.171Z,13.45
2023-05-24T02:34:54.502Z,13.49
2023-05-24T02:35:55.002Z,13.36
2023-05-24T02:36:55.738Z,13.36
2023-05-24T02:37:56.603Z,13.42
2023-05-24T02:38:57.096Z,13.3
2023-05-24T02:39:58.007Z,13.33
2023-05-24T02:40:58.908Z,13.21
2023-05-24T02:41:59.594Z,13.27
2023-05-24T02:42:59.553Z,13.39
2023-05-24T02:44:00.252Z,13.33
2023-05-24T02:44:59.959Z,13.24
2023-05-24T02:46:00.702Z,13.16
2023-05-24T02:47:01.635Z,13.19
2023-05-24T02:48:02.545Z,13.11
2023-05-24T02:49:02.508Z,13.06
2023-05-24T02:50:03.238Z,13.05
2023-05-24T02:51:03.976Z,12.94
2023-05-24T02:52:04.360Z,13.02
2023-05-24T02:53:04.870Z,12.87
2023-05-24T02:54:05.170Z,12.95
2023-05-24T02:55:06.060Z,12.91
2023-05-24T02:56:06.857Z,12.95
2023-05-24T02:57:07.629Z,12.95
2023-05-24T02:58:07.758Z,12.93
2023-05-24T02:59:08.504Z,12.93
2023-05-24T03:00:08.985Z,12.93
2023-05-24T03:01:09.463Z,12.93
2023-05-24T03:02:10.814Z,12.94
2023-05-24T03:03:11.783Z,12.94
2023-05-24T03:04:11.795Z,13.01
2023-05-24T03:05:12.788Z,12.95
2023-05-24T03:06:13.445Z,12.98
2023-05-24T03:07:13.938Z,13.03
2023-05-24T03:08:14.420Z,13.02
2023-05-24T03:09:14.889Z,13.03
2023-05-24T03:10:16.449Z,13.02
2023-05-24T03:11:15.947Z,13.02
2023-05-24T03:12:16.985Z,13.02
2023-05-24T03:13:16.886Z,13.06
2023-05-24T03:14:17.360Z,13.09
2023-05-24T03:15:17.691Z,13.06
2023-05-24T03:16:18.393Z,13.08
2023-05-24T03:17:19.504Z,13.12
2023-05-24T03:18:19.656Z,13.2
2023-05-24T03:19:20.358Z,13.26
2023-05-24T03:20:21.217Z,13.19
2023-05-24T03:21:21.798Z,13.36
2023-05-24T03:22:22.382Z,13.36
2023-05-24T03:23:22.470Z,13.24
2023-05-24T03:24:23.176Z,13.27
2023-05-24T03:25:24.074Z,13.28
2023-05-24T03:26:24.780Z,13.36
2023-05-24T03:27:25.554Z,13.24
2023-05-24T03:28:25.481Z,13.24
2023-05-24T03:29:26.013Z,13.36
2023-05-24T03:30:26.084Z,13.31
2023-05-24T03:31:26.894Z,13.24
2023-05-24T03:32:27.456Z,13.3
2023-05-24T03:33:28.638Z,13.28
2023-05-24T03:34:29.185Z,13.31
2023-05-24T03:35:30.272Z,13.23
2023-05-24T03:36:30.792Z,13.24
2023-05-24T03:37:31.276Z,13.33
2023-05-24T03:38:31.758Z,13.21
2023-05-24T03:39:32.094Z,13.26
2023-05-24T03:40:32.650Z,13.27
2023-05-24T03:41:33.224Z,13.23
2023-05-24T03:42:34.814Z,13.28
2023-05-24T03:43:34.770Z,13.36
2023-05-24T03:44:35.656Z,13.33
2023-05-24T03:45:44.630Z,13.27
2023-05-24T03:47:37.359Z,13.33
2023-05-24T03:48:38.187Z,13.31
2023-05-24T03:49:38.333Z,13.3
2023-05-24T03:50:39.365Z,13.3
2023-05-24T03:51:39.557Z,13.3
2023-05-24T03:52:39.740Z,13.28
2023-05-24T03:53:40.251Z,13.33
2023-05-24T03:54:41.363Z,13.3
2023-05-24T03:55:41.714Z,13.3
2023-05-24T03:56:42.018Z,13.39
2023-05-24T03:57:42.956Z,13.31
2023-05-24T03:58:42.882Z,13.37
2023-05-24T03:59:46.916Z,13.24
2023-05-24T04:01:44.530Z,13.23
2023-05-24T04:02:45.471Z,13.24
2023-05-24T04:03:46.285Z,13.31
2023-05-24T04:04:46.610Z,13.31
2023-05-24T04:05:47.101Z,13.24
2023-05-24T04:06:47.862Z,13.42
2023-05-24T04:07:48.799Z,13.26
2023-05-24T04:08:49.506Z,13.24
2023-05-24T04:09:50.222Z,13.37
2023-05-24T04:10:50.829Z,13.39
2023-05-24T04:11:51.809Z,13.2
2023-05-24T04:12:52.790Z,13.24
2023-05-24T04:13:52.758Z,13.21
2023-05-24T04:14:53.658Z,13.23
2023-05-24T04:15:54.555Z,13.21
2023-05-24T04:16:55.363Z,13.23
2023-05-24T04:17:56.606Z,13.17
2023-05-24T04:18:57.010Z,13.2
2023-05-24T04:19:56.754Z,13.17
2023-05-24T04:20:57.668Z,13.13
2023-05-24T04:21:58.375Z,13.13
2023-05-24T04:22:59.420Z,13.13
2023-05-24T04:24:00.391Z,13.12
2023-05-24T04:25:01.209Z,13.08
2023-05-24T04:26:01.403Z,13.09
2023-05-24T04:27:01.871Z,13.06
2023-05-24T04:28:02.874Z,13.08
2023-05-24T04:29:02.636Z,12.99
2023-05-24T04:30:03.501Z,13.12
2023-05-24T04:31:04.474Z,13.12
2023-05-24T04:32:05.106Z,13.17
2023-05-24T04:33:06.064Z,13.16
2023-05-24T04:34:06.967Z,13.19
2023-05-24T04:35:07.435Z,13.24
2023-05-24T04:36:07.761Z,13.23
2023-05-24T04:37:08.272Z,13.28
2023-05-24T04:38:08.775Z,13.23
2023-05-24T04:39:08.906Z,13.26
2023-05-24T04:40:09.626Z,13.33
2023-05-24T04:41:09.890Z,13.33
2023-05-24T04:42:10.384Z,13.2
2023-05-24T04:43:11.212Z,13.28
2023-05-24T04:44:10.997Z,13.31
2023-05-24T04:45:11.821Z,13.3
2023-05-24T04:46:14.610Z,13.39
2023-05-24T04:48:13.731Z,13.33
2023-05-24T04:49:14.251Z,13.36
2023-05-24T04:50:15.168Z,13.39
2023-05-24T04:51:15.888Z,13.33
2023-05-24T04:52:16.595Z,13.36
2023-05-24T04:53:17.087Z,13.39
2023-05-24T04:54:17.780Z,13.37
2023-05-24T04:55:18.489Z,13.33
2023-05-24T04:56:18.757Z,13.26
2023-05-24T04:57:19.630Z,13.31
2023-05-24T04:58:20.704Z,13.21
2023-05-24T04:59:20.665Z,13.36
2023-05-24T05:00:21.169Z,13.24
2023-05-24T05:01:22.172Z,13.26
2023-05-24T05:02:22.074Z,13.37
2023-05-24T05:03:22.821Z,13.24
2023-05-24T05:04:22.801Z,13.37
2023-05-24T05:05:23.681Z,13.21
2023-05-24T05:06:24.221Z,13.33
2023-05-24T05:07:24.906Z,13.3
2023-05-24T05:08:25.600Z,13.23
2023-05-24T05:09:26.482Z,13.21
2023-05-24T05:10:29.633Z,13.27
2023-05-24T05:12:28.205Z,13.09
2023-05-24T05:13:28.837Z,13.11
2023-05-24T05:14:28.816Z,13.08
2023-05-24T05:15:29.284Z,13.03
2023-05-24T05:16:30.274Z,13.02
2023-05-24T05:17:31.297Z,12.94
2023-05-24T05:18:31.607Z,12.9
2023-05-24T05:19:32.581Z,12.86
2023-05-24T05:20:32.864Z,12.87
2023-05-24T05:21:33.751Z,12.9
2023-05-24T05:22:36.588Z,12.8
2023-05-24T05:24:35.253Z,12.8
2023-05-24T05:25:35.938Z,12.84
2023-05-24T05:26:36.536Z,12.76
2023-05-24T05:27:37.059Z,12.76
2023-05-24T05:28:37.809Z,12.68
2023-05-24T05:29:37.736Z,12.7
2023-05-24T05:30:38.257Z,12.58
2023-05-24T05:31:39.271Z,12.58
2023-05-24T05:32:40.587Z,12.58
2023-05-24T05:33:40.568Z,12.58
2023-05-24T05:34:41.503Z,12.54
2023-05-24T05:35:41.884Z,12.54
2023-05-24T05:36:42.561Z,12.57
2023-05-24T05:37:43.295Z,12.57
2023-05-24T05:38:43.984Z,12.58
2023-05-24T05:39:44.608Z,12.57
2023-05-24T05:40:45.319Z,12.54
2023-05-24T05:41:47.013Z,12.61
2023-05-24T05:42:46.218Z,12.66
2023-05-24T05:43:47.069Z,12.66
2023-05-24T05:44:47.030Z,12.66
2023-05-24T05:45:47.474Z,12.68
2023-05-24T05:46:48.286Z,12.78
2023-05-24T05:47:49.001Z,12.78
2023-05-24T05:48:51.936Z,12.78
2023-05-24T05:50:51.957Z,12.9
2023-05-24T05:51:52.460Z,12.84
2023-05-24T05:52:53.373Z,12.9
2023-05-24T05:53:54.005Z,12.91
2023-05-24T05:54:54.722Z,12.93
2023-05-24T05:55:55.657Z,13.06
2023-05-24T05:56:56.125Z,13.02
2023-05-24T05:57:57.128Z,13.01
2023-05-24T05:58:58.117Z,13.06
2023-05-24T05:59:58.075Z,13.12
2023-05-24T06:00:58.584Z,13.17
2023-05-24T06:01:59.466Z,13.05
2023-05-24T06:03:00.879Z,13.09
2023-05-24T06:04:00.855Z,13.11
2023-05-24T06:05:01.618Z,13.09
2023-05-24T06:06:02.228Z,13.16
2023-05-24T06:07:03.117Z,13.05
2023-05-24T06:08:04.021Z,13.12
2023-05-24T06:09:04.726Z,13.05
2023-05-24T06:10:05.472Z,13.05
2023-05-24T06:11:05.998Z,13.02
2023-05-24T06:12:06.728Z,13.03
2023-05-24T06:13:07.463Z,13.09
2023-05-24T06:14:08.177Z,13.06
2023-05-24T06:15:08.350Z,13.12
2023-05-24T06:16:08.586Z,13.06
2023-05-24T06:17:09.116Z,13.11
2023-05-24T06:18:09.853Z,13.03
2023-05-24T06:19:12.562Z,13.03
2023-05-24T06:21:11.920Z,12.98
2023-05-24T06:22:12.821Z,13.01
2023-05-24T06:23:13.728Z,13.03
2023-05-24T06:24:14.370Z,12.98
2023-05-24T06:25:14.476Z,13.08
2023-05-24T06:26:14.997Z,13.05
2023-05-24T06:28:16.007Z,13.08
2023-05-24T06:29:16.973Z,13.16
2023-05-24T06:30:17.191Z,13.16
2023-05-24T06:31:18.347Z,13.11
2023-05-24T06:32:18.453Z,13.19
2023-05-24T06:33:19.570Z,13.09
2023-05-24T06:34:20.060Z,13.12
2023-05-24T06:35:21.149Z,13.16
2023-05-24T06:36:21.810Z,13.2
2023-05-24T06:37:22.679Z,13.17
2023-05-24T06:38:23.193Z,13.12
2023-05-24T06:39:24.284Z,13.3
2023-05-24T06:40:24.962Z,13.21
2023-05-24T06:41:25.673Z,13.19
2023-05-24T06:42:26.169Z,13.16
2023-05-24T06:43:27.140Z,13.08
2023-05-24T06:44:31.096Z,13.05
2023-05-24T06:46:29.898Z,12.99
2023-05-24T06:47:30.995Z,13.02
2023-05-24T06:48:31.331Z,13.02
2023-05-24T06:49:31.119Z,13.02
2023-05-24T06:50:31.913Z,12.98
2023-05-24T06:51:31.843Z,13.03
2023-05-24T06:52:32.746Z,13.01
2023-05-24T06:53:33.830Z,12.99
2023-05-24T06:54:33.883Z,12.95
2023-05-24T06:55:34.620Z,12.99
2023-05-24T06:56:35.137Z,12.88
2023-05-24T06:57:35.822Z,12.9
2023-05-24T06:58:35.742Z,12.87
2023-05-24T06:59:36.798Z,12.78
2023-05-24T07:00:36.502Z,12.8
2023-05-24T07:01:37.958Z,12.8
2023-05-24T07:02:38.366Z,12.8
2023-05-24T07:03:38.566Z,12.78
2023-05-24T07:04:39.611Z,12.8
2023-05-24T07:05:39.543Z,12.76
2023-05-24T07:06:40.116Z,12.72
2023-05-24T07:07:41.198Z,12.69
2023-05-24T07:08:41.904Z,12.75
2023-05-24T07:09:43.038Z,12.63
2023-05-24T07:10:44.344Z,12.62
2023-05-24T07:11:44.294Z,12.75
2023-05-24T07:12:45.110Z,12.69
2023-05-24T07:13:46.006Z,12.7
2023-05-24T07:14:47.326Z,12.66
2023-05-24T07:15:47.252Z,12.69
2023-05-24T07:16:47.386Z,12.61
2023-05-24T07:17:48.169Z,12.68
2023-05-24T07:18:49.016Z,12.78
2023-05-24T07:19:49.654Z,12.76
2023-05-24T07:20:51.346Z,12.78
2023-05-24T07:21:51.099Z,12.81
2023-05-24T07:22:51.771Z,12.8
2023-05-24T07:23:52.747Z,12.8
2023-05-24T07:24:53.073Z,12.76
2023-05-24T07:25:54.204Z,12.65
2023-05-24T07:26:55.676Z,12.78
2023-05-24T07:28:55.538Z,12.76
2023-05-24T07:29:55.749Z,12.78
2023-05-24T07:30:56.417Z,12.75
2023-05-24T07:31:56.374Z,12.76
2023-05-24T07:32:57.419Z,12.76
2023-05-24T07:33:58.052Z,12.8
2023-05-24T07:34:58.730Z,12.83
2023-05-24T07:35:59.704Z,12.78
2023-05-24T07:36:59.823Z,12.8
2023-05-24T07:38:00.145Z,12.86
2023-05-24T07:39:01.051Z,12.86
2023-05-24T07:40:02.037Z,12.87
2023-05-24T07:41:02.135Z,12.91
2023-05-24T07:42:03.120Z,12.9
2023-05-24T07:43:04.838Z,12.88
2023-05-24T07:44:04.749Z,12.91
2023-05-24T07:45:05.620Z,12.9
2023-05-24T07:46:06.200Z,13.01
2023-05-24T07:47:06.354Z,13.01
2023-05-24T07:48:07.318Z,13.02
2023-05-24T07:49:07.787Z,13.03
2023-05-24T07:50:07.693Z,13.17
2023-05-24T07:51:08.595Z,13.11
2023-05-24T07:52:09.076Z,13.19
2023-05-24T07:53:09.824Z,13.17
2023-05-24T07:54:10.726Z,13.19
2023-05-24T07:55:11.353Z,13.12
2023-05-24T07:56:12.454Z,13.19
2023-05-24T07:57:15.159Z,13.19
2023-05-24T07:59:14.313Z,13.16
2023-05-24T08:00:15.789Z,13.16
2023-05-24T08:01:15.685Z,13.24
2023-05-24T08:02:15.955Z,13.31
2023-05-24T08:03:17.378Z,13.3
2023-05-24T08:04:17.746Z,13.36
2023-05-24T08:05:18.407Z,13.21
2023-05-24T08:06:18.906Z,13.24
2023-05-24T08:07:20.175Z,13.33
2023-05-24T08:08:20.355Z,13.37
2023-05-24T08:09:20.846Z,13.3
2023-05-24T08:10:21.042Z,13.31
2023-05-24T08:11:22.140Z,13.33
2023-05-24T08:12:23.042Z,13.46
2023-05-24T08:13:23.567Z,13.37
2023-05-24T08:14:24.073Z,13.4
2023-05-24T08:15:25.628Z,13.42
2023-05-24T08:16:25.925Z,13.42
2023-05-24T08:17:26.611Z,13.45
2023-05-24T08:18:27.826Z,13.46
2023-05-24T08:19:28.617Z,13.43
2023-05-24T08:20:29.657Z,13.52
2023-05-24T08:21:29.758Z,13.54
2023-05-24T08:22:30.499Z,13.55
2023-05-24T08:23:30.830Z,13.5
2023-05-24T08:24:31.952Z,13.49
2023-05-24T08:25:32.433Z,13.57
2023-05-24T08:26:32.967Z,13.54
2023-05-24T08:27:33.938Z,13.57
2023-05-24T08:28:34.049Z,13.52
2023-05-24T08:29:34.838Z,13.55
2023-05-24T08:30:36.235Z,13.57
2023-05-24T08:31:36.902Z,13.55
2023-05-24T08:32:37.324Z,13.57
2023-05-24T08:33:37.961Z,13.55
2023-05-24T08:34:38.882Z,13.54
2023-05-24T08:35:39.701Z,13.58
2023-05-24T08:36:40.934Z,13.58
2023-05-24T08:37:41.831Z,13.61
2023-05-24T08:38:42.537Z,13.52
2023-05-24T08:39:43.691Z,13.57
2023-05-24T08:40:44.461Z,13.57
2023-05-24T08:42:01.304Z,13.5
2023-05-24T08:42:46.212Z,13.62
2023-05-24T08:43:47.135Z,13.54
2023-05-24T08:44:47.126Z,13.54
2023-05-24T08:45:48.675Z,13.52
2023-05-24T08:46:48.793Z,13.58
2023-05-24T08:47:49.227Z,13.52
2023-05-24T08:48:49.559Z,13.61
2023-05-24T08:49:50.675Z,13.58
2023-05-24T08:50:50.467Z,13.55
2023-05-24T08:51:51.489Z,13.61
2023-05-24T08:52:52.444Z,13.55
2023-05-24T08:53:53.192Z,13.57
2023-05-24T08:54:53.832Z,13.57
2023-05-24T08:55:54.291Z,13.52
2023-05-24T08:56:55.050Z,13.61
2023-05-24T08:57:55.632Z,13.61
2023-05-24T08:58:56.855Z,13.55
2023-05-24T08:59:57.802Z,13.57
2023-05-24T09:00:58.501Z,13.58
2023-05-24T09:01:58.789Z,13.58
2023-05-24T09:02:59.156Z,13.54
2023-05-24T09:04:00.281Z,13.58
2023-05-24T09:05:00.679Z,13.52
2023-05-24T09:06:01.471Z,13.55
2023-05-24T09:07:02.196Z,13.54
2023-05-24T09:08:03.045Z,13.54
2023-05-24T09:09:03.979Z,13.58
2023-05-24T09:10:04.745Z,13.55
2023-05-24T09:11:06.006Z,13.54
2023-05-24T09:12:06.745Z,13.55
2023-05-24T09:13:07.639Z,13.57
2023-05-24T09:14:07.489Z,13.52
2023-05-24T09:15:09.024Z,13.49
2023-05-24T09:16:09.215Z,13.57
2023-05-24T09:17:09.528Z,13.6
2023-05-24T09:18:09.891Z,13.64
2023-05-24T09:19:10.505Z,13.67
2023-05-24T09:20:12.234Z,13.7
2023-05-24T09:21:12.406Z,13.62
2023-05-24T09:22:13.332Z,13.79
2023-05-24T09:23:14.277Z,13.7
2023-05-24T09:24:15.182Z,13.75
2023-05-24T09:25:16.220Z,13.8
2023-05-24T09:26:16.598Z,13.85
2023-05-24T09:27:16.520Z,13.75
2023-05-24T09:28:17.329Z,13.89
2023-05-24T09:29:18.035Z,13.89
2023-05-24T09:30:19.022Z,13.98
2023-05-24T09:31:19.402Z,14.01
2023-05-24T09:32:19.755Z,13.91
2023-05-24T09:33:19.803Z,13.97
2023-05-24T09:34:20.463Z,14.01
2023-05-24T09:35:20.756Z,13.97
2023-05-24T09:36:21.727Z,13.98
2023-05-24T09:37:28.963Z,13.91
2023-05-24T09:38:21.637Z,13.83
2023-05-24T09:39:22.309Z,13.75
2023-05-24T09:40:23.242Z,13.79
2023-05-24T09:41:23.159Z,13.82
2023-05-24T09:42:23.838Z,13.82
2023-05-24T09:43:26.829Z,13.78
2023-05-24T09:44:25.753Z,13.85
2023-05-24T09:45:26.673Z,13.87
2023-05-24T09:46:27.779Z,13.89
2023-05-24T09:47:28.503Z,13.87
2023-05-24T09:48:28.621Z,13.86
2023-05-24T09:49:29.626Z,13.85
2023-05-24T09:50:30.441Z,13.73
2023-05-24T09:51:31.636Z,13.71
2023-05-24T09:52:35.969Z,13.76
2023-05-24T09:53:32.768Z,13.71
2023-05-24T09:54:33.864Z,13.73
2023-05-24T09:55:34.891Z,13.7
2023-05-24T09:56:34.600Z,13.76
2023-05-24T09:57:35.702Z,13.79
2023-05-24T09:58:36.921Z,13.7
2023-05-24T09:59:37.217Z,13.67
2023-05-24T10:00:37.946Z,13.68
2023-05-24T10:01:39.191Z,13.7
2023-05-24T10:02:54.336Z,13.67
2023-05-24T10:04:40.352Z,13.71
2023-05-24T10:05:40.704Z,13.71
2023-05-24T10:06:41.379Z,13.65
2023-05-24T10:07:42.063Z,13.68
2023-05-24T10:08:42.812Z,13.7
2023-05-24T10:09:43.710Z,13.65
2023-05-24T10:10:44.509Z,13.67
2023-05-24T10:11:44.024Z,13.62
2023-05-24T10:12:44.948Z,13.62
2023-05-24T10:13:45.548Z,13.64
2023-05-24T10:14:46.072Z,13.65
2023-05-24T10:15:46.674Z,13.64
2023-05-24T10:16:47.954Z,13.64
2023-05-24T10:17:48.219Z,13.6
2023-05-24T10:18:48.383Z,13.61
2023-05-24T10:19:49.627Z,13.61
2023-05-24T10:20:51.405Z,13.62
2023-05-24T10:22:51.205Z,13.65
2023-05-24T10:23:51.374Z,13.55
2023-05-24T10:24:52.542Z,13.57
2023-05-24T10:25:53.045Z,13.57
2023-05-24T10:26:53.633Z,13.61
2023-05-24T10:27:53.477Z,13.55
2023-05-24T10:28:54.465Z,13.57
2023-05-24T10:29:55.111Z,13.6
2023-05-24T10:30:56.544Z,13.57
2023-05-24T10:31:56.847Z,13.58
2023-05-24T10:32:57.320Z,13.55
2023-05-24T10:34:08.789Z,13.49
2023-05-24T10:34:58.883Z,13.49
2023-05-24T10:35:59.440Z,13.46
2023-05-24T10:36:59.762Z,13.46
2023-05-24T10:38:00.580Z,13.45
2023-05-24T10:39:01.538Z,13.43
2023-05-24T10:40:02.500Z,13.45
2023-05-24T10:41:03.538Z,13.5
2023-05-24T10:42:03.852Z,13.46
2023-05-24T10:43:04.397Z,13.47
2023-05-24T10:44:15.079Z,13.52
2023-05-24T10:46:06.500Z,13.49
2023-05-24T10:47:06.922Z,13.52
2023-05-24T10:48:07.288Z,13.54
2023-05-24T10:49:08.122Z,13.57
2023-05-24T10:50:08.832Z,13.61
2023-05-24T10:51:09.628Z,13.6
2023-05-24T10:52:10.379Z,13.64
2023-05-24T10:53:10.456Z,13.67
2023-05-24T10:54:14.494Z,13.65
2023-05-24T10:56:13.066Z,13.54
2023-05-24T10:57:14.311Z,13.6
2023-05-24T10:58:14.967Z,13.62
2023-05-24T10:59:15.982Z,13.65
2023-05-24T11:00:47.718Z,13.7
2023-05-24T11:02:19.313Z,13.73
2023-05-24T11:03:19.570Z,13.75
2023-05-24T11:04:19.465Z,13.7
2023-05-24T11:05:20.682Z,13.8
2023-05-24T11:06:20.682Z,13.78
2023-05-24T11:07:21.517Z,13.8
2023-05-24T11:08:22.411Z,13.79
2023-05-24T11:09:22.216Z,13.8
2023-05-24T11:10:23.150Z,13.83
2023-05-24T11:11:32.808Z,13.91
2023-05-24T11:13:25.409Z,13.94
2023-05-24T11:14:26.133Z,14.03
2023-05-24T11:15:27.247Z,14.03
2023-05-24T11:16:28.108Z,14.05
2023-05-24T11:17:29.181Z,14.12
2023-05-24T11:18:28.865Z,14.18
2023-05-24T11:19:29.751Z,14.31
2023-05-24T11:20:30.055Z,14.33
2023-05-24T11:21:30.479Z,14.41
2023-05-24T11:22:30.388Z,14.36
2023-05-24T11:23:31.395Z,14.31
2023-05-24T11:24:31.639Z,14.4
2023-05-24T11:25:32.589Z,14.31
2023-05-24T11:26:32.780Z,14.41
2023-05-24T11:27:33.175Z,14.48
2023-05-24T11:28:33.842Z,14.51
2023-05-24T11:29:38.166Z,14.48
2023-05-24T11:30:34.399Z,14.53
2023-05-24T11:31:38.924Z,14.63
2023-05-24T11:32:35.330Z,14.61
2023-05-24T11:33:35.482Z,14.59
2023-05-24T11:34:35.240Z,14.73
2023-05-24T11:35:36.375Z,14.73
2023-05-24T11:36:37.346Z,14.71
2023-05-24T11:37:51.779Z,14.71
2023-05-24T11:39:39.434Z,14.77
2023-05-24T11:40:40.593Z,14.81
2023-05-24T11:41:40.484Z,14.77
2023-05-24T11:42:41.421Z,14.78
2023-05-24T11:43:41.566Z,14.81
2023-05-24T11:44:41.712Z,14.81
2023-05-24T11:45:42.755Z,14.85
2023-05-24T11:46:43.470Z,14.81
2023-05-24T11:47:44.615Z,14.78
2023-05-24T11:48:47.356Z,14.79
2023-05-24T11:50:55.810Z,14.82
2023-05-24T11:52:47.880Z,14.82
2023-05-24T11:53:48.639Z,14.85
2023-05-24T11:54:49.269Z,14.85
2023-05-24T11:55:50.157Z,14.86
2023-05-24T11:56:50.855Z,14.74
2023-05-24T11:57:51.968Z,14.73
2023-05-24T11:58:52.788Z,14.81
2023-05-24T11:59:53.006Z,14.87
2023-05-24T12:00:53.492Z,14.77
2023-05-24T12:01:54.664Z,14.77
2023-05-24T12:02:57.600Z,14.7
2023-05-24T12:03:55.793Z,14.63
2023-05-24T12:04:55.978Z,14.51
2023-05-24T12:05:56.978Z,14.52
2023-05-24T12:06:57.111Z,14.56
2023-05-24T12:07:57.981Z,14.53
2023-05-24T12:08:58.343Z,14.51
2023-05-24T12:09:59.111Z,14.45
2023-05-24T12:10:59.005Z,14.52
2023-05-24T12:11:59.504Z,14.41
2023-05-24T12:13:00.522Z,14.37
2023-05-24T12:14:01.520Z,14.38
2023-05-24T12:15:02.441Z,14.36
2023-05-24T12:16:02.902Z,14.49
2023-05-24T12:17:03.193Z,14.34
2023-05-24T12:18:04.216Z,14.38
2023-05-24T12:19:32.839Z,14.33
2023-05-24T12:21:04.689Z,14.33
2023-05-24T12:22:05.641Z,14.4
2023-05-24T12:23:06.593Z,14.4
2023-05-24T12:24:07.286Z,14.31
2023-05-24T12:25:08.185Z,14.43
2023-05-24T12:26:09.171Z,14.3
2023-05-24T12:27:10.116Z,14.38
2023-05-24T12:28:10.885Z,14.31
2023-05-24T12:29:11.439Z,14.36
2023-05-24T12:30:12.154Z,14.26
2023-05-24T12:31:13.248Z,14.36
2023-05-24T12:32:15.943Z,14.31
2023-05-24T12:33:15.780Z,14.3
2023-05-24T12:34:15.927Z,14.3
2023-05-24T12:35:16.272Z,14.31
2023-05-24T12:36:17.537Z,14.16
2023-05-24T12:37:19.420Z,14.18
2023-05-24T12:38:18.964Z,14.16
2023-05-24T12:39:20.067Z,14.12
2023-05-24T12:40:20.584Z,14.11
2023-05-24T12:41:21.289Z,14.12
2023-05-24T12:42:22.382Z,14.04
2023-05-24T12:43:22.920Z,14.05
2023-05-24T12:44:23.428Z,14.11
2023-05-24T12:45:24.119Z,13.93
2023-05-24T12:46:25.189Z,13.91
2023-05-24T12:47:25.968Z,14.01
2023-05-24T12:48:26.533Z,13.94
2023-05-24T12:49:26.753Z,14.04
2023-05-24T12:50:26.736Z,14.05
2023-05-24T12:51:27.686Z,13.97
2023-05-24T12:52:30.151Z,14.04
2023-05-24T12:54:29.865Z,13.97
2023-05-24T12:55:31.070Z,13.91
2023-05-24T12:56:31.001Z,13.94
2023-05-24T12:57:31.707Z,13.83
2023-05-24T12:58:32.533Z,13.82
2023-05-24T12:59:33.336Z,13.86
2023-05-24T13:00:33.480Z,13.86
2023-05-24T13:01:34.192Z,13.85
2023-05-24T13:02:34.322Z,13.86
2023-05-24T13:03:35.229Z,13.8
2023-05-24T13:04:35.578Z,13.85
2023-05-24T13:05:36.806Z,13.89
2023-05-24T13:06:36.945Z,13.78
2023-05-24T13:07:37.973Z,13.82
2023-05-24T13:08:41.297Z,13.79
2023-05-24T13:09:39.512Z,13.85
2023-05-24T13:10:40.457Z,13.7
2023-05-24T13:11:40.763Z,13.7
2023-05-24T13:12:41.652Z,13.68
2023-05-24T13:13:42.561Z,13.64
2023-05-24T13:14:43.257Z,13.61
2023-05-24T13:15:43.409Z,13.6
2023-05-24T13:16:44.893Z,13.58
2023-05-24T13:17:45.118Z,13.6
2023-05-24T13:18:46.262Z,13.54
2023-05-24T13:19:46.223Z,13.58
2023-05-24T13:20:48.307Z,13.52
2023-05-24T13:21:47.846Z,13.43
2023-05-24T13:22:47.487Z,13.47
2023-05-24T13:23:48.236Z,13.4
2023-05-24T13:24:48.733Z,13.46
2023-05-24T13:25:49.667Z,13.4
2023-05-24T13:26:54.773Z,13.45
2023-05-24T13:27:51.145Z,13.33
2023-05-24T13:29:39.823Z,13.31
2023-05-24T13:31:13.070Z,13.37
2023-05-24T13:32:13.334Z,13.27
2023-05-24T13:33:14.252Z,13.37
2023-05-24T13:34:15.131Z,13.3
2023-05-24T13:35:15.050Z,13.39
2023-05-24T13:36:15.779Z,13.4
2023-05-24T13:37:15.686Z,13.33
2023-05-24T13:38:16.798Z,13.33
2023-05-24T13:39:22.747Z,13.46
2023-05-24T13:40:23.515Z,13.43
2023-05-24T13:41:24.363Z,13.42
2023-05-24T13:42:24.552Z,13.54
2023-05-24T13:43:24.444Z,13.58
2023-05-24T13:44:25.546Z,13.54
2023-05-24T13:45:25.760Z,13.61
2023-05-24T13:46:26.850Z,13.64
2023-05-24T13:47:47.646Z,13.61
2023-05-24T13:49:28.495Z,13.68
2023-05-24T13:50:28.344Z,13.67
2023-05-24T13:51:29.046Z,13.67
2023-05-24T13:52:29.872Z,13.68
2023-05-24T13:53:30.563Z,13.75
2023-05-24T13:54:31.111Z,13.75
2023-05-24T13:55:32.206Z,13.75
2023-05-24T13:56:32.193Z,13.76
2023-05-24T13:57:52.571Z,13.8
2023-05-24T13:59:33.626Z,13.75
2023-05-24T14:00:34.510Z,13.79
2023-05-24T14:01:35.465Z,13.82
2023-05-24T14:02:35.482Z,13.83
2023-05-24T14:03:36.543Z,13.78
2023-05-24T14:04:37.815Z,13.75
2023-05-24T14:05:38.079Z,13.8
2023-05-24T14:06:38.646Z,13.79
2023-05-24T14:07:39.307Z,13.78
2023-05-24T14:08:40.599Z,13.8
2023-05-24T14:09:41.319Z,13.8
2023-05-24T14:10:42.069Z,13.79